Flight Track Log - Related Links

Times and Time Zones

All times are in EDT time to prevent confusion due to time zone crossing. See the N508QS flight status page for this flight to view local times or setup timezone preferences in your user account.

Time Position Orientation Groundspeed Altitude Reporting Facility
EDT Latitude Longitude Course Direction KTS MPH feet Rate Location/Type
Mon 02:28:58 PM 25.0678 -77.3981 24° Northeast 477 549 7,200  Level Miami Center
Mon 02:29:58 PM 25.1494 -77.3869 North 380 437 10,700 2,800 Climbing Miami Center
Mon 02:30:58 PM 25.2372 -77.3411 25° Northeast 347 399 12,800 2,200 Climbing Miami Center
Mon 02:31:58 PM 25.3397 -77.2889 25° Northeast 372 428 15,100 1,650 Climbing Miami Center
Mon 02:32:58 PM 25.4425 -77.2361 25° Northeast 388 447 16,100 1,900 Climbing Miami Center
Mon 02:33:58 PM 25.5469 -77.1811 25° Northeast 401 461 18,900 2,700 Climbing Miami Center
Mon 02:34:00 PM 25.6967 -77.0934 24° Northeast  Level FlightAware Approximate
Mon 02:34:58 PM 25.6558 -77.1261 24° Northeast 413 475 21,500  Level Miami Center
Mon 02:35:58 PM 25.7708 -77.0642 26° Northeast 427 491 23,000 1,000 Climbing Miami Center
Mon 02:36:58 PM 25.8919 -77.0275 15° North 443 510 23,500 1,300 Climbing Miami Center
Mon 02:37:58 PM 26.0194 -77.0436 354° North 437 503 25,600 2,200 Climbing Miami Center
Mon 02:38:58 PM 26.1489 -77.0833 345° North 461 531 27,900 2,300 Climbing Miami Center
Mon 02:39:58 PM 26.2828 -77.1158 348° North 472 543 30,200 2,500 Climbing Miami Center
Mon 02:40:58 PM 26.4122 -77.1511 346° North 472 543 32,900 2,600 Climbing Miami Center
Mon 02:41:58 PM 26.5417 -77.1886 345° North 472 543 35,400 2,200 Climbing Miami Center
Mon 02:42:58 PM 26.6711 -77.2236 346° North 472 543 37,300 2,000 Climbing Miami Center
Mon 02:43:58 PM 26.7983 -77.2614 345° North 472 543 39,400 1,850 Climbing Miami Center
Mon 02:44:58 PM 26.9258 -77.2944 347° North 472 543 41,000 800 Climbing Miami Center
Mon 02:45:58 PM 27.0550 -77.3322 345° North 472 543 41,000  Level Miami Center
Mon 02:46:58 PM 27.1825 -77.3747 343° North 472 543 41,000  Level Miami Center
Mon 02:47:58 PM 27.3117 -77.4103 346° North 472 543 41,000  Level Miami Center
Mon 02:48:58 PM 27.4411 -77.4439 347° North 472 543 41,000  Level Miami Center
Mon 02:49:58 PM 27.5831 -77.4772 348° North 472 543 41,000  Level Miami Center
Mon 02:50:58 PM 27.6956 -77.5131 344° North 472 543 41,000  Level Miami Center
Mon 02:51:58 PM 27.8269 -77.5514 346° North 472 543 41,000  Level Miami Center
Mon 02:52:58 PM 27.9583 -77.5875 346° North 466 536 41,000  Level Miami Center
Mon 02:53:58 PM 28.0878 -77.6236 346° North 474 545 41,000  Level Miami Center
Mon 02:54:58 PM 28.2211 -77.6458 352° North 478 550 41,000  Level Miami Center
Mon 02:55:58 PM 28.3506 -77.6514 358° North 478 550 41,000 -50 Level Miami Center
Mon 02:56:58 PM 28.4842 -77.6594 357° North 476 548 40,900  Descending Miami Center
Mon 02:57:58 PM 28.6178 -77.6650 358° North 481 554 41,000 50 Climbing Miami Center
Mon 02:58:58 PM 28.7492 -77.6731 357° North 481 554 41,000  Level Miami Center
Mon 02:59:58 PM 28.8828 -77.6789 358° North 476 548 41,000  Level Miami Center
Mon 03:00:58 PM 29.0142 -77.6869 357° North 476 548 41,000  Level Miami Center
Mon 03:01:58 PM 29.1456 -77.6928 358° North 476 548 41,000  Level Miami Center
Mon 03:02:58 PM 29.2853 -77.7031 356° North 476 548 41,000  Level Miami Center
Mon 03:03:58 PM 29.4125 -77.7067 359° North 481 554 41,000  Level Miami Center
Mon 03:04:58 PM 29.5458 -77.7147 357° North 473 544 41,000  Level Miami Center
Mon 03:05:58 PM 29.6772 -77.7181 359° North 479 551 41,000  Level Miami Center
Mon 03:07:31 PM 29.8886 -77.7283 358° North 472 543 41,000  Level Jacksonville Center
Mon 03:08:31 PM 30.0225 -77.7378 357° North 465 535 41,000  Level Jacksonville Center
Mon 03:09:32 PM 30.1606 -77.7450 357° North 473 544 41,000  Level Jacksonville Center
Mon 03:10:31 PM 30.2917 -77.7356 North 473 544 41,000  Level Jacksonville Center
Mon 03:11:32 PM 30.4236 -77.7475 356° North 479 551 41,000  Level Jacksonville Center
Mon 03:12:32 PM 30.5550 -77.7478 360° North 479 551 41,000  Level Jacksonville Center
Mon 03:13:32 PM 30.6894 -77.7669 353° North 479 551 41,000  Level Jacksonville Center
Mon 03:14:32 PM 30.8211 -77.7719 358° North 479 551 41,000  Level Jacksonville Center
Mon 03:15:32 PM 30.9531 -77.7842 355° North 479 551 41,000  Level Jacksonville Center
Mon 03:16:31 PM 31.0850 -77.7939 356° North 479 551 41,000  Level Jacksonville Center
Mon 03:17:31 PM 31.2189 -77.7989 358° North 479 551 41,000  Level Jacksonville Center
Mon 03:18:32 PM 31.3506 -77.8064 357° North 479 551 41,000  Level Jacksonville Center
Mon 03:19:32 PM 31.4819 -77.8064 360° North 479 551 41,000  Level Jacksonville Center
Mon 03:20:32 PM 31.6161 -77.8161 356° North 479 551 41,000  Level Jacksonville Center
Mon 03:21:32 PM 31.7478 -77.8211 358° North 479 551 41,000  Level Jacksonville Center
Mon 03:22:32 PM 31.8778 -77.8361 354° North 479 551 41,000  Level Jacksonville Center
Mon 03:23:32 PM 32.0094 -77.8411 358° North 479 551 41,000  Level Jacksonville Center
Mon 03:24:32 PM 32.1392 -77.8461 358° North 474 545 41,000  Level Jacksonville Center
Mon 03:25:31 PM 32.2728 -77.8536 357° North 474 545 41,000  Level Jacksonville Center
Mon 03:26:31 PM 32.4028 -77.8636 356° North 474 545 41,000  Level Jacksonville Center
Mon 03:27:32 PM 32.5344 -77.8711 357° North 474 545 41,000  Level Jacksonville Center
Mon 03:28:31 PM 32.6683 -77.8758 358° North 474 545 41,000  Level Jacksonville Center
Mon 03:29:31 PM 32.8000 -77.8833 357° North 474 545 41,000  Level Jacksonville Center
Mon 03:30:32 PM 32.9319 -77.8933 356° North 479 551 41,000  Level Jacksonville Center
Mon 03:31:31 PM 33.0639 -77.9033 356° North 479 551 41,000  Level Jacksonville Center
Mon 03:32:32 PM 33.1997 -77.9083 358° North 479 551 41,000  Level Jacksonville Center
Mon 03:33:32 PM 33.3333 -77.9156 357° North 479 551 41,000  Level Jacksonville Center
Mon 03:34:31 PM 33.4653 -77.9233 357° North 479 551 41,000  Level Jacksonville Center
Mon 03:35:44 PM 33.6275 -77.9336 357° North 478 550 41,000  Level Washington Center
Mon 03:36:44 PM 33.7608 -77.9422 357° North 478 550 41,000  Level Washington Center
Mon 03:37:45 PM 33.9128 -77.9492 358° North 478 550 41,000  Level Washington Center
Mon 03:38:46 PM 34.0483 -77.9581 357° North 483 556 41,000  Level Washington Center
Mon 03:39:46 PM 34.1792 -77.9917 348° North 483 556 41,000 610 Level Washington Center
Mon 03:40:44 PM 34.3072 -78.0558 338° Northwest 475 547 42,200 1,000 Climbing Washington Center
Mon 03:41:46 PM 34.4269 -78.1122 339° North 475 547 43,000 393 Climbing Washington Center
Mon 03:42:46 PM 34.5489 -78.1664 340° North 470 541 43,000  Level Washington Center
Mon 03:43:44 PM 34.6686 -78.2233 339° North 465 535 43,000  Level Washington Center
Mon 03:44:45 PM 34.7906 -78.2803 339° North 465 535 43,000  Level Washington Center
Mon 03:45:46 PM 34.9042 -78.3272 341° North 459 528 43,000  Level Washington Center
Mon 03:46:44 PM 35.0258 -78.3869 338° Northwest 459 528 43,000  Level Washington Center
Mon 03:47:45 PM 35.1436 -78.4419 339° North 459 528 43,000  Level Washington Center
Mon 03:48:45 PM 35.2653 -78.4997 339° North 459 528 43,000  Level Washington Center
Mon 03:49:46 PM 35.3892 -78.5550 340° North 473 544 43,000  Level Washington Center
Mon 03:50:46 PM 35.4964 -78.6050 339° North 466 536 43,000  Level Washington Center
Mon 03:51:44 PM 35.6283 -78.6689 339° North 461 531 43,000  Level Washington Center
Mon 03:52:44 PM 35.7436 -78.7244 339° North 474 545 43,000  Level Washington Center
Mon 03:53:46 PM 35.8631 -78.7831 338° Northwest 469 540 43,000  Level Washington Center
Mon 03:54:46 PM 35.9717 -78.8617 330° Northwest 457 526 43,000  Level Washington Center
Mon 03:55:44 PM 36.0778 -78.9458 327° Northwest 452 520 43,000  Level Washington Center
Mon 03:56:44 PM 36.1858 -79.0328 327° Northwest 452 520 43,000  Level Washington Center
Mon 03:57:45 PM 36.2919 -79.1147 328° Northwest 452 520 43,000  Level Washington Center
Mon 03:58:46 PM 36.4100 -79.2131 326° Northwest 452 520 43,000  Level Washington Center
Mon 03:59:46 PM 36.5142 -79.2928 328° Northwest 444 511 43,000  Level Washington Center
Mon 04:00:46 PM 36.6239 -79.3808 327° Northwest 460 529 43,000  Level Washington Center
Mon 04:01:47 PM 36.7317 -79.4692 327° Northwest 460 529 43,000  Level Washington Center
Mon 04:02:44 PM 36.8314 -79.5492 327° Northwest 466 536 43,000  Level Washington Center
Mon 04:03:44 PM 36.9411 -79.6381 327° Northwest 466 536 43,000  Level Washington Center
Mon 04:04:45 PM 37.0528 -79.7297 327° Northwest 471 542 43,000  Level Washington Center
Mon 04:05:45 PM 37.1600 -79.8189 326° Northwest 471 542 43,000 99 Level Washington Center
Mon 04:06:46 PM 37.2875 -79.8706 342° North 461 531 43,200 504 Climbing Washington Center
Mon 04:07:44 PM 37.4372 -79.8892 354° North 478 550 44,000 807 Climbing Washington Center
Mon 04:08:45 PM 37.5700 -79.9072 354° North 488 562 44,800 492 Climbing Washington Center
Mon 04:09:46 PM 37.7022 -79.9436 348° North 483 556 45,000 98 Climbing Washington Center
Mon 04:10:47 PM 37.8297 -79.9958 342° North 483 556 45,000  Level Washington Center
Mon 04:11:45 PM 37.9575 -80.0375 346° North 476 548 45,000  Level Washington Center
Mon 04:12:45 PM 38.0875 -80.0689 349° North 469 540 45,000  Level Washington Center
Mon 04:13:46 PM 38.2078 -80.0894 352° North 469 540 45,000  Level Washington Center
Mon 04:14:44 PM 38.3383 -80.1158 351° North 475 547 45,000  Level Washington Center
Mon 04:15:45 PM 38.4686 -80.1422 351° North 475 547 45,000  Level Washington Center
Mon 04:16:46 PM 38.6169 -80.1356 North 475 547 45,000  Level Washington Center
Mon 04:17:46 PM 38.7508 -80.1225 North 480 552 45,000  Level Washington Center
Mon 04:18:45 PM 38.8867 -80.1147 North 480 552 45,000  Level Washington Center
Mon 04:19:46 PM 39.0094 -80.1758 339° North 463 533 45,000  Level Washington Center
Mon 04:21:20 PM 39.1894 -80.3181 329° Northwest 461 531 45,000  Level Cleveland Center
Mon 04:22:20 PM 39.2978 -80.4086 327° Northwest 467 537 45,000  Level Cleveland Center
Mon 04:23:20 PM 39.4083 -80.4969 328° Northwest 472 543 45,000  Level Cleveland Center
Mon 04:24:20 PM 39.5211 -80.5911 327° Northwest 472 543 45,000  Level Cleveland Center
Mon 04:25:20 PM 39.6336 -80.6856 327° Northwest 477 549 45,000  Level Cleveland Center
Mon 04:26:20 PM 39.7439 -80.7775 327° Northwest 477 549 45,000  Level Cleveland Center
Mon 04:27:20 PM 39.8542 -80.8697 327° Northwest 477 549 45,000 -550 Level Cleveland Center
Mon 04:28:20 PM 39.9664 -80.9650 327° Northwest 477 549 43,900 -1,300 Descending Cleveland Center
Mon 04:29:20 PM 40.0786 -81.0578 328° Northwest 477 549 42,400 -1,500 Descending Cleveland Center
Mon 04:30:20 PM 40.1950 -81.1567 327° Northwest 483 556 40,900 -1,500 Descending Cleveland Center
Mon 04:31:20 PM 40.3133 -81.2556 328° Northwest 488 562 39,400 -1,450 Descending Cleveland Center
Mon 04:32:20 PM 40.4272 -81.3494 328° Northwest 493 567 38,000 -700 Descending Cleveland Center
Mon 04:33:20 PM 40.5411 -81.4519 326° Northwest 501 577 38,000  Level Cleveland Center
Mon 04:34:20 PM 40.6447 -81.5464 325° Northwest 501 577 38,000 -550 Level Cleveland Center
Mon 04:35:20 PM 40.7797 -81.5894 346° North 501 577 36,900 -1,000 Descending Cleveland Center
Mon 04:36:20 PM 40.9172 -81.6136 352° North 494 568 36,000 -1,000 Descending Cleveland Center
Mon 04:37:20 PM 41.0544 -81.6350 353° North 494 568 34,900 -1,950 Descending Cleveland Center
Mon 04:38:20 PM 41.2042 -81.6814 347° North 502 578 32,100 -2,350 Descending Cleveland Center
Mon 04:39:20 PM 41.3053 -81.8022 318° Northwest 481 554 30,200 -1,800 Descending Cleveland Center
Mon 04:40:20 PM 41.3972 -81.9450 311° West 473 544 28,500 -2,100 Descending Cleveland Center
Mon 04:41:20 PM 41.4833 -82.0742 312° West 481 554 26,000 -2,450 Descending Cleveland Center
Mon 04:42:20 PM 41.5669 -82.2011 311° West 466 536 23,600 -2,200 Descending Cleveland Center
Mon 04:43:20 PM 41.6406 -82.3142 311° West 460 529 21,600 -2,235 Descending Cleveland Center
Mon 04:44:02 PM 41.7036 -82.4103 311° West 428 493 19,800 -2,300 Descending Cleveland Center
Mon 04:44:20 PM 41.7158 -82.4331 306° West 439 505 19,300 -3,462 Descending Cleveland Center
Mon 04:45:20 PM 41.7889 -82.5464 311° West 424 488 15,300 -3,984 Descending Cleveland Center
Mon 04:46:28 PM 41.8867 -82.6694 317° Northwest 378 435 10,800 -2,700 Descending Cleveland Center
Mon 04:47:20 PM 41.9658 -82.6719 359° North 353 406 9,900 -1,982 Descending Cleveland Center
Mon 04:48:20 PM 42.0492 -82.6775 357° North 328 377 7,100 -2,420 Descending Cleveland Center
Mon 04:49:19 PM 42.1325 -82.6831 357° North 268 308 5,100 -1,850 Descending Cleveland Center
Mon 04:50:20 PM 42.2053 -82.6883 357° North 239 275 3,400 -1,041 Descending Cleveland Center
Mon 04:51:20 PM 42.2636 -82.6931 357° North 244 281 3,000 -200 Descending Cleveland Center
Mon 04:52:20 PM 42.3303 -82.7036 353° North 238 274 3,000 -250 Level Cleveland Center
Mon 04:53:20 PM 42.3564 -82.7553 304° West 198 228 2,500 -462 Descending Cleveland Center
Mon 04:54:30 PM 42.3300 -82.8244 243° Southwest 169 194 2,000 -321 Descending Cleveland Center
Mon 04:55:31 PM 42.3103 -82.8772 243° Southwest 152 175 1,800 -466 Descending Cleveland Center
Mon 04:56:26 PM 42.2947 -82.9131 240° Southwest 128 147 1,100 -517 Descending Cleveland Center
Mon 04:57:27 PM 42.2839 -82.9381 240° Southwest 127 146 800 -295 Descending Cleveland Center

Login

Don't have an account? Register now (free) for customized features, flight alerts, and more!